sensor_id;sensor_type;location;lat;lon;timestamp;pressure;altitude;pressure_sealevel;temperature;humidity
28000;BME280;15328;50.860;10.562;2023-11-21T00:01:21;95819.78;;;9.46;64.96
28000;BME280;15328;50.860;10.562;2023-11-21T00:06:21;95815.50;;;9.45;64.39
28000;BME280;15328;50.860;10.562;2023-11-21T00:11:22;95809.59;;;9.43;64.62
28000;BME280;15328;50.860;10.562;2023-11-21T00:16:23;95821.94;;;9.37;64.06
28000;BME280;15328;50.860;10.562;2023-11-21T00:21:25;95821.81;;;9.32;64.04
28000;BME280;15328;50.860;10.562;2023-11-21T00:26:25;95822.00;;;9.30;64.28
28000;BME280;15328;50.860;10.562;2023-11-21T00:31:26;95821.88;;;9.25;63.94
28000;BME280;15328;50.860;10.562;2023-11-21T00:36:26;95815.16;;;9.23;63.62
28000;BME280;15328;50.860;10.562;2023-11-21T00:41:27;95828.41;;;9.11;63.41
28000;BME280;15328;50.860;10.562;2023-11-21T00:46:28;95831.78;;;9.00;63.13
28000;BME280;15328;50.860;10.562;2023-11-21T00:51:29;95831.72;;;8.88;63.24
28000;BME280;15328;50.860;10.562;2023-11-21T00:56:30;95833.41;;;8.83;63.38
28000;BME280;15328;50.860;10.562;2023-11-21T01:01:30;95841.38;;;8.83;63.61
28000;BME280;15328;50.860;10.562;2023-11-21T01:06:31;95833.66;;;8.81;63.44
28000;BME280;15328;50.860;10.562;2023-11-21T01:11:31;95846.53;;;8.78;64.08
28000;BME280;15328;50.860;10.562;2023-11-21T01:16:33;95848.97;;;8.79;64.39
28000;BME280;15328;50.860;10.562;2023-11-21T01:21:33;95858.31;;;8.82;64.41
28000;BME280;15328;50.860;10.562;2023-11-21T01:26:34;95859.88;;;8.89;64.73
28000;BME280;15328;50.860;10.562;2023-11-21T01:31:34;95868.78;;;8.95;64.68
28000;BME280;15328;50.860;10.562;2023-11-21T01:36:34;95879.53;;;9.00;64.87
28000;BME280;15328;50.860;10.562;2023-11-21T01:41:35;95880.13;;;9.02;65.45
28000;BME280;15328;50.860;10.562;2023-11-21T01:46:36;95886.41;;;9.08;65.01
28000;BME280;15328;50.860;10.562;2023-11-21T01:51:37;95883.91;;;9.13;64.91
28000;BME280;15328;50.860;10.562;2023-11-21T01:56:38;95889.34;;;9.18;65.03
28000;BME280;15328;50.860;10.562;2023-11-21T02:01:39;95887.84;;;9.22;64.59
28000;BME280;15328;50.860;10.562;2023-11-21T02:06:41;95894.56;;;9.24;65.08
28000;BME280;15328;50.860;10.562;2023-11-21T02:11:41;95890.44;;;9.28;64.85
28000;BME280;15328;50.860;10.562;2023-11-21T02:16:42;95893.66;;;9.30;64.77
28000;BME280;15328;50.860;10.562;2023-11-21T02:21:46;95890.59;;;9.34;64.50
28000;BME280;15328;50.860;10.562;2023-11-21T02:26:48;95898.91;;;9.37;64.63
28000;BME280;15328;50.860;10.562;2023-11-21T02:31:52;95900.41;;;9.33;64.70
28000;BME280;15328;50.860;10.562;2023-11-21T02:36:54;95902.88;;;9.28;65.16
28000;BME280;15328;50.860;10.562;2023-11-21T02:41:55;95887.63;;;9.23;65.28
28000;BME280;15328;50.860;10.562;2023-11-21T02:46:56;95882.78;;;9.20;65.57
28000;BME280;15328;50.860;10.562;2023-11-21T02:51:57;95878.38;;;9.14;65.58
28000;BME280;15328;50.860;10.562;2023-11-21T02:56:58;95887.34;;;9.13;65.66
28000;BME280;15328;50.860;10.562;2023-11-21T03:01:58;95899.22;;;9.11;65.90
28000;BME280;15328;50.860;10.562;2023-11-21T03:06:59;95888.97;;;9.14;66.05
28000;BME280;15328;50.860;10.562;2023-11-21T03:11:59;95891.31;;;9.22;65.69
28000;BME280;15328;50.860;10.562;2023-11-21T03:16:59;95888.34;;;9.30;65.80
28000;BME280;15328;50.860;10.562;2023-11-21T03:22:00;95886.75;;;9.29;65.55
28000;BME280;15328;50.860;10.562;2023-11-21T03:27:00;95881.00;;;9.33;65.08
28000;BME280;15328;50.860;10.562;2023-11-21T03:32:01;95881.81;;;9.33;65.20
28000;BME280;15328;50.860;10.562;2023-11-21T03:37:02;95885.28;;;9.34;65.40
28000;BME280;15328;50.860;10.562;2023-11-21T03:42:02;95894.66;;;9.36;65.32
28000;BME280;15328;50.860;10.562;2023-11-21T03:47:03;95901.81;;;9.36;65.47
28000;BME280;15328;50.860;10.562;2023-11-21T03:52:04;95913.44;;;9.35;65.15
28000;BME280;15328;50.860;10.562;2023-11-21T03:57:04;95912.06;;;9.32;64.99
28000;BME280;15328;50.860;10.562;2023-11-21T04:02:04;95920.44;;;9.29;64.52
28000;BME280;15328;50.860;10.562;2023-11-21T04:07:05;95926.84;;;9.21;64.17
28000;BME280;15328;50.860;10.562;2023-11-21T04:12:05;95929.38;;;9.16;63.76
28000;BME280;15328;50.860;10.562;2023-11-21T04:17:06;95938.22;;;9.10;63.81
28000;BME280;15328;50.860;10.562;2023-11-21T04:22:07;95937.63;;;9.08;63.90
28000;BME280;15328;50.860;10.562;2023-11-21T04:27:07;95953.00;;;8.99;63.94
28000;BME280;15328;50.860;10.562;2023-11-21T04:32:08;95946.16;;;8.92;64.61
28000;BME280;15328;50.860;10.562;2023-11-21T04:37:08;95956.09;;;8.96;64.42
28000;BME280;15328;50.860;10.562;2023-11-21T04:42:10;95962.66;;;8.94;63.81
28000;BME280;15328;50.860;10.562;2023-11-21T04:47:11;95958.81;;;8.90;63.48
28000;BME280;15328;50.860;10.562;2023-11-21T04:52:11;95965.00;;;8.84;63.42
28000;BME280;15328;50.860;10.562;2023-11-21T04:57:12;95966.28;;;8.75;63.29
28000;BME280;15328;50.860;10.562;2023-11-21T05:02:12;95979.22;;;8.64;63.21
28000;BME280;15328;50.860;10.562;2023-11-21T05:07:12;95965.66;;;8.54;62.89
28000;BME280;15328;50.860;10.562;2023-11-21T05:12:13;95972.81;;;8.47;63.04
28000;BME280;15328;50.860;10.562;2023-11-21T05:17:14;95976.59;;;8.33;62.95
28000;BME280;15328;50.860;10.562;2023-11-21T05:22:15;95964.84;;;8.22;62.72
28000;BME280;15328;50.860;10.562;2023-11-21T05:27:15;95970.59;;;8.13;62.55
28000;BME280;15328;50.860;10.562;2023-11-21T05:32:16;95982.09;;;8.00;63.04
28000;BME280;15328;50.860;10.562;2023-11-21T05:37:17;95980.91;;;7.96;63.43
28000;BME280;15328;50.860;10.562;2023-11-21T05:42:18;95982.09;;;7.93;63.41
28000;BME280;15328;50.860;10.562;2023-11-21T05:47:21;95990.25;;;7.92;63.12
28000;BME280;15328;50.860;10.562;2023-11-21T05:52:21;96003.53;;;7.85;63.46
28000;BME280;15328;50.860;10.562;2023-11-21T05:57:22;96012.13;;;7.81;62.93
28000;BME280;15328;50.860;10.562;2023-11-21T06:02:22;96014.81;;;7.74;63.12
28000;BME280;15328;50.860;10.562;2023-11-21T06:07:22;96019.50;;;7.65;62.95
28000;BME280;15328;50.860;10.562;2023-11-21T06:12:23;96017.91;;;7.58;63.13
28000;BME280;15328;50.860;10.562;2023-11-21T06:17:23;96032.16;;;7.57;63.38
28000;BME280;15328;50.860;10.562;2023-11-21T06:22:25;96035.84;;;7.56;63.32
28000;BME280;15328;50.860;10.562;2023-11-21T06:27:25;96042.16;;;7.55;63.46
28000;BME280;15328;50.860;10.562;2023-11-21T06:32:26;96051.53;;;7.51;62.95
28000;BME280;15328;50.860;10.562;2023-11-21T06:37:27;96056.03;;;7.43;63.30
28000;BME280;15328;50.860;10.562;2023-11-21T06:42:27;96063.75;;;7.38;63.26
28000;BME280;15328;50.860;10.562;2023-11-21T06:47:29;96064.78;;;7.37;63.42
28000;BME280;15328;50.860;10.562;2023-11-21T06:52:30;96060.28;;;7.38;63.67
28000;BME280;15328;50.860;10.562;2023-11-21T06:57:31;96059.47;;;7.37;63.71
28000;BME280;15328;50.860;10.562;2023-11-21T07:02:31;96068.03;;;7.33;64.01
28000;BME280;15328;50.860;10.562;2023-11-21T07:07:31;96076.59;;;7.35;64.31
28000;BME280;15328;50.860;10.562;2023-11-21T07:12:34;96083.72;;;7.34;64.74
28000;BME280;15328;50.860;10.562;2023-11-21T07:17:35;96103.44;;;7.38;64.23
28000;BME280;15328;50.860;10.562;2023-11-21T07:22:36;96106.53;;;7.42;64.60
28000;BME280;15328;50.860;10.562;2023-11-21T07:27:36;96111.41;;;7.45;64.21
28000;BME280;15328;50.860;10.562;2023-11-21T07:32:37;96112.81;;;7.48;64.27
28000;BME280;15328;50.860;10.562;2023-11-21T07:37:39;96113.00;;;7.53;64.08
28000;BME280;15328;50.860;10.562;2023-11-21T07:42:40;96113.19;;;7.58;64.24
28000;BME280;15328;50.860;10.562;2023-11-21T07:47:42;96123.56;;;7.66;64.48
28000;BME280;15328;50.860;10.562;2023-11-21T07:52:43;96125.81;;;7.69;65.05
28000;BME280;15328;50.860;10.562;2023-11-21T07:57:43;96131.91;;;7.76;65.51
28000;BME280;15328;50.860;10.562;2023-11-21T08:02:43;96142.88;;;7.86;65.37
28000;BME280;15328;50.860;10.562;2023-11-21T08:07:46;96142.84;;;7.99;65.85
28000;BME280;15328;50.860;10.562;2023-11-21T08:12:46;96149.53;;;8.09;66.30
28000;BME280;15328;50.860;10.562;2023-11-21T08:17:48;96150.94;;;8.18;65.71
28000;BME280;15328;50.860;10.562;2023-11-21T08:22:48;96155.19;;;8.32;66.09
28000;BME280;15328;50.860;10.562;2023-11-21T08:27:49;96151.06;;;8.49;66.16
28000;BME280;15328;50.860;10.562;2023-11-21T08:32:49;96158.66;;;8.77;66.46
28000;BME280;15328;50.860;10.562;2023-11-21T08:37:52;96161.75;;;9.06;66.69
28000;BME280;15328;50.860;10.562;2023-11-21T08:42:56;96163.34;;;9.38;66.48
28000;BME280;15328;50.860;10.562;2023-11-21T08:47:58;96165.00;;;9.57;65.75
28000;BME280;15328;50.860;10.562;2023-11-21T08:52:59;96167.13;;;9.74;65.40
28000;BME280;15328;50.860;10.562;2023-11-21T08:57:59;96172.97;;;9.82;64.85
28000;BME280;15328;50.860;10.562;2023-11-21T09:03:01;96170.25;;;9.89;64.30
28000;BME280;15328;50.860;10.562;2023-11-21T09:08:03;96182.66;;;9.95;63.82
28000;BME280;15328;50.860;10.562;2023-11-21T09:13:03;96189.16;;;9.99;63.82
28000;BME280;15328;50.860;10.562;2023-11-21T09:18:04;96197.94;;;10.00;63.55
28000;BME280;15328;50.860;10.562;2023-11-21T09:23:05;96202.16;;;10.07;63.12
28000;BME280;15328;50.860;10.562;2023-11-21T09:28:05;96207.03;;;10.10;63.24
28000;BME280;15328;50.860;10.562;2023-11-21T09:33:09;96207.78;;;10.17;63.83
28000;BME280;15328;50.860;10.562;2023-11-21T09:38:10;96213.34;;;10.34;64.24
28000;BME280;15328;50.860;10.562;2023-11-21T09:43:17;96216.91;;;10.46;64.22
28000;BME280;15328;50.860;10.562;2023-11-21T09:48:20;96220.81;;;10.62;63.55
28000;BME280;15328;50.860;10.562;2023-11-21T09:53:21;96227.81;;;10.75;62.77
28000;BME280;15328;50.860;10.562;2023-11-21T09:58:24;96235.34;;;10.78;62.10
28000;BME280;15328;50.860;10.562;2023-11-21T10:03:25;96228.69;;;10.87;61.73
28000;BME280;15328;50.860;10.562;2023-11-21T10:08:25;96229.13;;;10.84;61.06
28000;BME280;15328;50.860;10.562;2023-11-21T10:13:29;96233.50;;;10.78;61.21
28000;BME280;15328;50.860;10.562;2023-11-21T10:18:32;96239.06;;;10.77;61.40
28000;BME280;15328;50.860;10.562;2023-11-21T10:23:34;96234.78;;;10.76;61.40
28000;BME280;15328;50.860;10.562;2023-11-21T10:28:37;96236.72;;;10.69;61.82
28000;BME280;15328;50.860;10.562;2023-11-21T10:33:39;96241.28;;;10.62;61.94
28000;BME280;15328;50.860;10.562;2023-11-21T10:38:42;96244.16;;;10.60;61.18
28000;BME280;15328;50.860;10.562;2023-11-21T10:43:43;96244.25;;;10.53;61.65
28000;BME280;15328;50.860;10.562;2023-11-21T10:48:44;96247.47;;;10.37;61.47
28000;BME280;15328;50.860;10.562;2023-11-21T10:53:45;96254.84;;;10.35;62.27
28000;BME280;15328;50.860;10.562;2023-11-21T10:58:46;96260.41;;;10.34;62.30
28000;BME280;15328;50.860;10.562;2023-11-21T11:03:46;96261.66;;;10.31;62.99
28000;BME280;15328;50.860;10.562;2023-11-21T11:08:47;96268.06;;;10.24;63.45
28000;BME280;15328;50.860;10.562;2023-11-21T11:13:49;96258.88;;;10.19;63.41
28000;BME280;15328;50.860;10.562;2023-11-21T11:18:50;96270.19;;;10.15;63.52
28000;BME280;15328;50.860;10.562;2023-11-21T11:29:41;96266.31;;;10.11;64.08
28000;BME280;15328;50.860;10.562;2023-11-21T11:34:48;96266.97;;;10.06;64.10
28000;BME280;15328;50.860;10.562;2023-11-21T11:39:50;96272.56;;;9.98;64.35
28000;BME280;15328;50.860;10.562;2023-11-21T11:44:52;96279.88;;;10.03;64.53
28000;BME280;15328;50.860;10.562;2023-11-21T11:55:15;96287.53;;;9.93;64.13
28000;BME280;15328;50.860;10.562;2023-11-21T12:05:33;96296.38;;;9.86;64.71
28000;BME280;15328;50.860;10.562;2023-11-21T12:10:39;96299.44;;;9.83;64.70
28000;BME280;15328;50.860;10.562;2023-11-21T12:15:42;96300.53;;;9.76;65.09
28000;BME280;15328;50.860;10.562;2023-11-21T12:20:43;96302.97;;;9.77;65.03
28000;BME280;15328;50.860;10.562;2023-11-21T12:25:47;96308.78;;;9.68;65.11
28000;BME280;15328;50.860;10.562;2023-11-21T12:30:47;96317.94;;;9.72;65.55
28000;BME280;15328;50.860;10.562;2023-11-21T12:35:48;96313.88;;;9.69;65.60
28000;BME280;15328;50.860;10.562;2023-11-21T12:40:48;96311.84;;;9.65;65.73
28000;BME280;15328;50.860;10.562;2023-11-21T12:45:49;96319.19;;;9.69;65.76
28000;BME280;15328;50.860;10.562;2023-11-21T12:50:49;96326.53;;;9.67;65.77
28000;BME280;15328;50.860;10.562;2023-11-21T12:55:55;96327.91;;;9.76;65.86
28000;BME280;15328;50.860;10.562;2023-11-21T13:00:57;96328.72;;;9.77;65.98
28000;BME280;15328;50.860;10.562;2023-11-21T13:05:59;96324.81;;;9.79;66.31
28000;BME280;15328;50.860;10.562;2023-11-21T13:11:01;96318.69;;;9.79;66.15
28000;BME280;15328;50.860;10.562;2023-11-21T13:16:03;96330.72;;;9.81;66.14
28000;BME280;15328;50.860;10.562;2023-11-21T13:21:09;96329.88;;;9.87;66.44
28000;BME280;15328;50.860;10.562;2023-11-21T13:26:13;96330.88;;;9.93;66.38
28000;BME280;15328;50.860;10.562;2023-11-21T13:31:14;96335.53;;;9.98;66.38
28000;BME280;15328;50.860;10.562;2023-11-21T13:36:23;96344.09;;;10.00;65.97
28000;BME280;15328;50.860;10.562;2023-11-21T13:41:24;96348.59;;;9.99;66.34
28000;BME280;15328;50.860;10.562;2023-11-21T13:46:30;96356.78;;;9.98;65.96
28000;BME280;15328;50.860;10.562;2023-11-21T13:51:37;96355.59;;;9.94;66.34
28000;BME280;15328;50.860;10.562;2023-11-21T13:56:50;96357.38;;;10.00;66.06
28000;BME280;15328;50.860;10.562;2023-11-21T14:01:51;96366.81;;;9.96;66.08
28000;BME280;15328;50.860;10.562;2023-11-21T14:07:12;96375.81;;;9.95;66.48
28000;BME280;15328;50.860;10.562;2023-11-21T14:12:41;96377.66;;;9.94;65.94
28000;BME280;15328;50.860;10.562;2023-11-21T14:17:42;96384.16;;;9.98;66.15
28000;BME280;15328;50.860;10.562;2023-11-21T14:22:43;96410.38;;;9.95;66.35
28000;BME280;15328;50.860;10.562;2023-11-21T14:27:43;96418.22;;;9.76;65.73
28000;BME280;15328;50.860;10.562;2023-11-21T14:32:44;96428.94;;;9.63;65.85
28000;BME280;15328;50.860;10.562;2023-11-21T14:37:44;96433.13;;;9.39;65.04
28000;BME280;15328;50.860;10.562;2023-11-21T14:42:46;96442.59;;;9.15;65.26
28000;BME280;15328;50.860;10.562;2023-11-21T14:47:47;96452.84;;;8.85;65.02
28000;BME280;15328;50.860;10.562;2023-11-21T14:53:06;96459.00;;;8.59;65.38
28000;BME280;15328;50.860;10.562;2023-11-21T14:58:06;96472.22;;;8.40;65.85
28000;BME280;15328;50.860;10.562;2023-11-21T15:03:12;96483.00;;;8.31;66.03
28000;BME280;15328;50.860;10.562;2023-11-21T15:08:41;96495.41;;;8.18;65.93
28000;BME280;15328;50.860;10.562;2023-11-21T15:13:43;96505.78;;;7.99;66.22
28000;BME280;15328;50.860;10.562;2023-11-21T15:18:43;96514.47;;;7.87;66.81
28000;BME280;15328;50.860;10.562;2023-11-21T15:23:44;96525.66;;;7.75;66.77
28000;BME280;15328;50.860;10.562;2023-11-21T15:28:44;96528.50;;;7.74;66.50
28000;BME280;15328;50.860;10.562;2023-11-21T15:33:45;96539.00;;;7.61;66.64
28000;BME280;15328;50.860;10.562;2023-11-21T15:38:45;96544.28;;;7.54;66.17
28000;BME280;15328;50.860;10.562;2023-11-21T15:43:46;96552.03;;;7.21;66.65
28000;BME280;15328;50.860;10.562;2023-11-21T15:48:49;96557.28;;;7.15;67.34
28000;BME280;15328;50.860;10.562;2023-11-21T15:53:54;96568.94;;;7.20;67.36
28000;BME280;15328;50.860;10.562;2023-11-21T15:58:54;96585.56;;;7.14;66.89
28000;BME280;15328;50.860;10.562;2023-11-21T16:03:55;96589.41;;;7.11;66.86
28000;BME280;15328;50.860;10.562;2023-11-21T16:08:55;96583.44;;;7.03;66.68
28000;BME280;15328;50.860;10.562;2023-11-21T16:13:58;96589.88;;;6.94;66.54
28000;BME280;15328;50.860;10.562;2023-11-21T16:18:58;96598.63;;;6.94;66.33
28000;BME280;15328;50.860;10.562;2023-11-21T16:23:59;96591.53;;;6.95;66.46
28000;BME280;15328;50.860;10.562;2023-11-21T16:28:59;96615.72;;;6.92;65.88
28000;BME280;15328;50.860;10.562;2023-11-21T16:33:59;96621.75;;;6.86;65.89
28000;BME280;15328;50.860;10.562;2023-11-21T16:39:00;96632.06;;;6.80;66.54
28000;BME280;15328;50.860;10.562;2023-11-21T16:44:00;96649.66;;;6.88;66.25
28000;BME280;15328;50.860;10.562;2023-11-21T16:49:01;96652.09;;;6.90;66.37
28000;BME280;15328;50.860;10.562;2023-11-21T16:54:02;96658.84;;;6.92;65.63
28000;BME280;15328;50.860;10.562;2023-11-21T16:59:03;96664.06;;;6.86;66.10
28000;BME280;15328;50.860;10.562;2023-11-21T17:04:03;96669.22;;;6.94;65.56
28000;BME280;15328;50.860;10.562;2023-11-21T17:09:05;96684.09;;;6.95;65.50
28000;BME280;15328;50.860;10.562;2023-11-21T17:14:09;96689.00;;;6.98;65.32
28000;BME280;15328;50.860;10.562;2023-11-21T17:19:10;96705.25;;;6.95;64.93
28000;BME280;15328;50.860;10.562;2023-11-21T17:24:11;96722.50;;;6.91;64.52
28000;BME280;15328;50.860;10.562;2023-11-21T17:29:11;96723.22;;;6.63;64.79
28000;BME280;15328;50.860;10.562;2023-11-21T17:34:11;96728.78;;;6.54;65.21
28000;BME280;15328;50.860;10.562;2023-11-21T17:39:12;96730.97;;;6.50;65.09
28000;BME280;15328;50.860;10.562;2023-11-21T17:44:13;96737.00;;;6.44;65.15
28000;BME280;15328;50.860;10.562;2023-11-21T17:49:13;96735.66;;;6.33;64.99
28000;BME280;15328;50.860;10.562;2023-11-21T17:54:13;96760.63;;;6.16;64.64
28000;BME280;15328;50.860;10.562;2023-11-21T17:59:14;96761.91;;;6.05;64.26
28000;BME280;15328;50.860;10.562;2023-11-21T18:04:16;96761.06;;;5.90;63.55
28000;BME280;15328;50.860;10.562;2023-11-21T18:09:16;96774.94;;;5.84;63.82
28000;BME280;15328;50.860;10.562;2023-11-21T18:14:20;96780.06;;;5.85;63.85
28000;BME280;15328;50.860;10.562;2023-11-21T18:19:20;96791.25;;;5.87;63.97
28000;BME280;15328;50.860;10.562;2023-11-21T18:24:20;96808.09;;;5.86;63.57
28000;BME280;15328;50.860;10.562;2023-11-21T18:29:21;96802.13;;;5.93;63.05
28000;BME280;15328;50.860;10.562;2023-11-21T18:34:21;96814.13;;;5.95;63.37
28000;BME280;15328;50.860;10.562;2023-11-21T18:39:22;96812.97;;;5.98;63.34
28000;BME280;15328;50.860;10.562;2023-11-21T18:44:22;96822.34;;;6.00;63.21
28000;BME280;15328;50.860;10.562;2023-11-21T18:49:22;96824.53;;;5.97;63.27
28000;BME280;15328;50.860;10.562;2023-11-21T18:54:23;96834.72;;;6.00;63.00
28000;BME280;15328;50.860;10.562;2023-11-21T18:59:23;96844.78;;;6.04;62.77
28000;BME280;15328;50.860;10.562;2023-11-21T19:04:24;96843.78;;;6.05;62.90
28000;BME280;15328;50.860;10.562;2023-11-21T19:09:25;96849.88;;;6.06;62.70
28000;BME280;15328;50.860;10.562;2023-11-21T19:14:25;96852.97;;;6.09;62.52
28000;BME280;15328;50.860;10.562;2023-11-21T19:19:25;96858.69;;;5.98;62.58
28000;BME280;15328;50.860;10.562;2023-11-21T19:24:26;96874.53;;;5.98;62.71
28000;BME280;15328;50.860;10.562;2023-11-21T19:29:26;96878.63;;;6.01;62.59
28000;BME280;15328;50.860;10.562;2023-11-21T19:34:26;96888.38;;;6.00;62.35
28000;BME280;15328;50.860;10.562;2023-11-21T19:39:29;96888.38;;;6.00;62.73
28000;BME280;15328;50.860;10.562;2023-11-21T19:44:30;96906.84;;;6.00;62.85
28000;BME280;15328;50.860;10.562;2023-11-21T19:49:31;96902.69;;;6.06;62.57
28000;BME280;15328;50.860;10.562;2023-11-21T19:54:33;96903.22;;;6.01;62.51
28000;BME280;15328;50.860;10.562;2023-11-21T19:59:34;96919.72;;;6.03;62.66
28000;BME280;15328;50.860;10.562;2023-11-21T20:04:37;96923.53;;;6.01;62.83
28000;BME280;15328;50.860;10.562;2023-11-21T20:09:39;96922.69;;;6.00;62.25
28000;BME280;15328;50.860;10.562;2023-11-21T20:14:39;96929.06;;;5.91;62.71
28000;BME280;15328;50.860;10.562;2023-11-21T20:19:42;96940.13;;;5.86;62.37
28000;BME280;15328;50.860;10.562;2023-11-21T20:24:43;96950.03;;;5.84;62.46
28000;BME280;15328;50.860;10.562;2023-11-21T20:29:44;96953.97;;;5.88;62.53
28000;BME280;15328;50.860;10.562;2023-11-21T20:34:44;96964.41;;;5.82;62.79
28000;BME280;15328;50.860;10.562;2023-11-21T20:39:46;96954.38;;;5.77;62.56
28000;BME280;15328;50.860;10.562;2023-11-21T20:44:48;96963.31;;;5.68;62.33
28000;BME280;15328;50.860;10.562;2023-11-21T20:49:50;96949.59;;;5.73;62.22
28000;BME280;15328;50.860;10.562;2023-11-21T20:54:51;96966.13;;;5.67;62.08
28000;BME280;15328;50.860;10.562;2023-11-21T20:59:52;96969.31;;;5.62;62.21
28000;BME280;15328;50.860;10.562;2023-11-21T21:04:52;96969.53;;;5.52;62.06
28000;BME280;15328;50.860;10.562;2023-11-21T21:09:52;96970.53;;;5.51;62.16
28000;BME280;15328;50.860;10.562;2023-11-21T21:14:55;96983.41;;;5.46;62.20
28000;BME280;15328;50.860;10.562;2023-11-21T21:19:56;96985.09;;;5.39;62.58
28000;BME280;15328;50.860;10.562;2023-11-21T21:24:56;96983.09;;;5.41;62.37
28000;BME280;15328;50.860;10.562;2023-11-21T21:29:57;96989.19;;;5.42;62.08
28000;BME280;15328;50.860;10.562;2023-11-21T21:34:57;96997.75;;;5.44;62.04
28000;BME280;15328;50.860;10.562;2023-11-21T21:39:57;96996.47;;;5.40;61.84
28000;BME280;15328;50.860;10.562;2023-11-21T21:44:58;97003.59;;;5.31;61.72
28000;BME280;15328;50.860;10.562;2023-11-21T21:49:59;97005.41;;;5.31;62.05
28000;BME280;15328;50.860;10.562;2023-11-21T21:54:59;97008.41;;;5.27;62.00
28000;BME280;15328;50.860;10.562;2023-11-21T22:00:01;97015.97;;;5.31;62.39
28000;BME280;15328;50.860;10.562;2023-11-21T22:05:03;97010.50;;;5.32;62.13
28000;BME280;15328;50.860;10.562;2023-11-21T22:10:04;97019.47;;;5.23;62.48
28000;BME280;15328;50.860;10.562;2023-11-21T22:15:04;97027.38;;;5.23;62.44
28000;BME280;15328;50.860;10.562;2023-11-21T22:20:05;97029.19;;;5.22;62.37
28000;BME280;15328;50.860;10.562;2023-11-21T22:25:06;97027.53;;;5.21;62.93
28000;BME280;15328;50.860;10.562;2023-11-21T22:30:07;97035.47;;;5.21;62.64
28000;BME280;15328;50.860;10.562;2023-11-21T22:35:09;97052.41;;;5.19;63.09
28000;BME280;15328;50.860;10.562;2023-11-21T22:40:10;97060.88;;;5.06;62.54
28000;BME280;15328;50.860;10.562;2023-11-21T22:45:10;97075.53;;;4.92;62.13
28000;BME280;15328;50.860;10.562;2023-11-21T22:50:11;97077.22;;;4.85;61.73
28000;BME280;15328;50.860;10.562;2023-11-21T22:55:11;97078.88;;;4.78;60.04
28000;BME280;15328;50.860;10.562;2023-11-21T23:00:12;97088.09;;;4.58;59.08
28000;BME280;15328;50.860;10.562;2023-11-21T23:05:14;97083.66;;;4.42;59.07
28000;BME280;15328;50.860;10.562;2023-11-21T23:10:15;97094.66;;;4.29;59.30
28000;BME280;15328;50.860;10.562;2023-11-21T23:15:18;97083.63;;;4.18;59.65
28000;BME280;15328;50.860;10.562;2023-11-21T23:20:20;97094.91;;;4.02;59.49
28000;BME280;15328;50.860;10.562;2023-11-21T23:25:21;97090.31;;;3.96;59.29
28000;BME280;15328;50.860;10.562;2023-11-21T23:30:21;97094.06;;;3.85;59.47
28000;BME280;15328;50.860;10.562;2023-11-21T23:35:22;97097.78;;;3.75;59.75
28000;BME280;15328;50.860;10.562;2023-11-21T23:40:24;97096.47;;;3.70;59.92
28000;BME280;15328;50.860;10.562;2023-11-21T23:45:25;97088.06;;;3.59;59.09
28000;BME280;15328;50.860;10.562;2023-11-21T23:50:28;97082.25;;;3.55;59.79
28000;BME280;15328;50.860;10.562;2023-11-21T23:55:29;97080.94;;;3.51;59.75
